Hauptseite
METAR-TAF:

METAR-TAF

Flughäfen :

Épinal, Frankreich

Flughafen Epinal-Mirecourt

Breite: 48-19-31N, Länge: 6-04-00E, Höhe: 330 m

Beobachtung

Neuester Wetterbericht von vor 36 Minuten, um 10:30 UTC
Wind 10 kt aus West/Südwest, variierte zwischen Süd/Südwest und West
Temperatur 21°C
Luftfeuchtigkeit 56%
Luftdruck 1017 hPa
Sichtweite 10 km oder mehr
Leicht bewölkt in der Höhe von 3900 ft
Aufgelockert bewölkt in der Höhe von 6200 ft
Durchbrochene Bewölkung in der Höhe von 14000 ft

METAR: LFSG 281030Z AUTO 24010KT 210V280 9999 FEW039 SCT062 BKN140 21/12 Q1017

Zeit: 13:06 (11:06 UTC)


TAF: fehlend

Wetterbeobachtungen und Prognosen von mehr als 4000 Flughäfen (METAR und TAF Bericht).

Die verfügbaren Stationen werden durch gelbe und rote Markierungen auf der Karte dargestellt.

Führen Sie die Maus auf sie, um den Namen der Station zu sehen.

Darauf klicken, um die Beobachtung von Wetterbeobachtungen und Prognosen zu sehen.

Um die Karte zu ändern : klicken Sie auf den grünen Tasten mit einem schwarzen Kreuz Zum Vergrößern, auf den grünen Button mit einem Gedankenstrich zu verkleinern, oder auf die grünen Pfeile für benachbarte Karten.


METAR-TAF: